Time;durP1;ratioP1;P1;durP2;ratioP2;P2;SDS_P1;SDS_P2;PMS_P1;PMS_P2;Temp;Humidity;BMP_temperature;BMP_pressure;BME280_temperature;BME280_humidity;BME280_pressure;Samples;Min_cycle;Max_cycle;Signal;HPM_P1;HPM_P2
2022/10/30 00:01:01;;;;;;;10.60;3.80;;;;;;;;;;5096209;28;20238;-79
2022/10/30 00:03:28;;;;;;;9.00;4.20;;;;;;;;;;5106071;28;20243;-79
2022/10/30 00:05:56;;;;;;;9.33;3.83;;;;;;;;;;5116875;28;20259;-79
2022/10/30 00:08:25;;;;;;;9.40;4.10;;;;;;;;;;5115306;28;20301;-78
2022/10/30 00:10:54;;;;;;;9.13;4.07;;;;;;;;;;5116393;28;20755;-79
2022/10/30 00:13:21;;;;;;;8.73;4.07;;;;;;;;;;5115383;28;20279;-78
2022/10/30 00:15:49;;;;;;;11.67;4.20;;;;;;;;;;5106851;28;20280;-79
2022/10/30 00:18:17;;;;;;;9.20;2.90;;;;;;;;;;5116366;28;20233;-79
2022/10/30 00:20:44;;;;;;;9.17;3.40;;;;;;;;;;5104364;28;20297;-78
2022/10/30 00:23:11;;;;;;;6.37;2.63;;;;;;;;;;5096126;28;20290;-79
2022/10/30 00:25:38;;;;;;;8.50;2.97;;;;;;;;;;5115018;28;20288;-79
2022/10/30 00:28:07;;;;;;;11.00;3.27;;;;;;;;;;5116164;28;20253;-79
2022/10/30 00:30:34;;;;;;;9.03;3.00;;;;;;;;;;5097418;28;20250;-78
2022/10/30 00:33:02;;;;;;;9.37;3.00;;;;;;;;;;5095415;28;20226;-79
2022/10/30 00:35:29;;;;;;;8.77;3.20;;;;;;;;;;5095985;28;20278;-79
2022/10/30 00:37:56;;;;;;;11.07;3.00;;;;;;;;;;5095567;28;20286;-79
2022/10/30 00:40:23;;;;;;;8.17;2.73;;;;;;;;;;5095361;28;20294;-79
2022/10/30 00:42:50;;;;;;;8.97;3.17;;;;;;;;;;5095130;28;20234;-79
2022/10/30 00:45:19;;;;;;;8.30;2.93;;;;;;;;;;5095661;28;20701;-79
2022/10/30 00:47:48;;;;;;;9.00;2.80;;;;;;;;;;5094811;28;20234;-79
2022/10/30 00:50:18;;;;;;;9.57;2.73;;;;;;;;;;5095376;28;20226;-78
2022/10/30 00:52:46;;;;;;;10.03;2.50;;;;;;;;;;5095487;28;20286;-79
2022/10/30 00:55:16;;;;;;;11.73;2.93;;;;;;;;;;5112087;28;20198;-79
2022/10/30 00:57:45;;;;;;;11.80;3.10;;;;;;;;;;5112003;28;20618;-79
2022/10/30 01:00:13;;;;;;;8.50;2.90;;;;;;;;;;5094857;28;20684;-79
2022/10/30 01:02:43;;;;;;;7.17;2.37;;;;;;;;;;5094647;28;20713;-79
2022/10/30 01:05:10;;;;;;;6.93;2.60;;;;;;;;;;5101889;28;20284;-79
2022/10/30 01:07:37;;;;;;;9.47;2.77;;;;;;;;;;5107856;28;20236;-79
2022/10/30 01:10:05;;;;;;;3.83;2.30;;;;;;;;;;5111665;28;20235;-79
2022/10/30 01:12:32;;;;;;;9.67;2.90;;;;;;;;;;5097612;28;20340;-79
2022/10/30 01:15:00;;;;;;;9.20;2.73;;;;;;;;;;5110192;28;20230;-79
2022/10/30 01:17:37;;;;;;;7.23;2.73;;;;;;;;;;5094263;28;20238;-79
2022/10/30 01:20:13;;;;;;;7.47;2.30;;;;;;;;;;5094738;28;20736;-79
2022/10/30 01:22:48;;;;;;;9.80;2.97;;;;;;;;;;5094897;28;20237;-79
2022/10/30 01:25:23;;;;;;;7.33;2.60;;;;;;;;;;5094441;28;20277;-78
2022/10/30 01:27:55;;;;;;;8.47;2.50;;;;;;;;;;5094853;28;20236;-79
2022/10/30 01:30:31;;;;;;;11.23;2.90;;;;;;;;;;5093935;28;20276;-79
2022/10/30 01:33:10;;;;;;;7.43;2.40;;;;;;;;;;5109361;28;20277;-79
2022/10/30 01:35:41;;;;;;;7.93;2.53;;;;;;;;;;5114430;28;20233;-79
2022/10/30 01:38:10;;;;;;;9.80;2.60;;;;;;;;;;5115062;28;20289;-79
2022/10/30 01:40:38;;;;;;;11.63;3.00;;;;;;;;;;5114459;28;20280;-79
2022/10/30 01:43:05;;;;;;;9.63;2.57;;;;;;;;;;5114952;28;20288;-79
2022/10/30 01:45:41;;;;;;;10.33;2.87;;;;;;;;;;5114310;28;20236;-79
2022/10/30 01:48:14;;;;;;;8.17;2.63;;;;;;;;;;5114500;28;20229;-79
2022/10/30 01:50:48;;;;;;;8.17;2.03;;;;;;;;;;5114272;28;20740;-79
2022/10/30 01:53:23;;;;;;;8.47;2.70;;;;;;;;;;5101049;28;20281;-79
2022/10/30 01:55:55;;;;;;;8.63;2.77;;;;;;;;;;5093703;28;20289;-79
2022/10/30 01:58:24;;;;;;;10.20;2.77;;;;;;;;;;5094019;28;20288;-79
2022/10/30 02:00:56;;;;;;;9.50;2.60;;;;;;;;;;5093477;28;20574;-79
2022/10/30 02:03:23;;;;;;;8.50;2.77;;;;;;;;;;5100356;28;20210;-79
2022/10/30 02:05:52;;;;;;;11.53;2.63;;;;;;;;;;5113834;28;20646;-79
2022/10/30 02:08:20;;;;;;;7.90;2.50;;;;;;;;;;5113943;28;20241;-79
2022/10/30 02:10:47;;;;;;;9.47;2.60;;;;;;;;;;5113846;28;20232;-78
2022/10/30 02:13:15;;;;;;;8.90;2.73;;;;;;;;;;5112494;28;20290;-79
2022/10/30 02:15:43;;;;;;;8.23;2.87;;;;;;;;;;5096361;28;20245;-79
2022/10/30 02:18:10;;;;;;;10.50;2.90;;;;;;;;;;5097385;28;20233;-78
2022/10/30 02:20:39;;;;;;;11.97;2.70;;;;;;;;;;5093903;28;20285;-79
2022/10/30 02:23:07;;;;;;;7.13;2.70;;;;;;;;;;5093877;28;20230;-79
2022/10/30 02:25:34;;;;;;;7.67;2.30;;;;;;;;;;5093767;28;20255;-79
2022/10/30 02:28:01;;;;;;;15.77;2.63;;;;;;;;;;5092759;28;20674;-78
2022/10/30 02:30:29;;;;;;;7.23;2.40;;;;;;;;;;5112384;28;20217;-79
2022/10/30 02:32:58;;;;;;;9.13;2.57;;;;;;;;;;5108450;28;20236;-78
2022/10/30 02:35:25;;;;;;;8.07;2.50;;;;;;;;;;5093207;28;20203;-79
2022/10/30 02:37:54;;;;;;;8.17;2.40;;;;;;;;;;5093161;28;20665;-78
2022/10/30 02:40:21;;;;;;;8.37;3.00;;;;;;;;;;5092931;28;20281;-79
2022/10/30 02:42:52;;;;;;;7.97;2.20;;;;;;;;;;5105158;28;20640;-79
2022/10/30 02:45:19;;;;;;;10.77;2.70;;;;;;;;;;5093278;28;20220;-79
2022/10/30 02:47:46;;;;;;;9.93;2.90;;;;;;;;;;5093053;28;20194;-79
2022/10/30 02:50:14;;;;;;;8.57;2.63;;;;;;;;;;5092593;28;20301;-78
2022/10/30 02:52:41;;;;;;;10.13;2.67;;;;;;;;;;5092675;28;20627;-79
2022/10/30 02:55:10;;;;;;;10.90;2.60;;;;;;;;;;5093025;28;20202;-78
2022/10/30 02:57:37;;;;;;;6.20;2.50;;;;;;;;;;5092186;28;20285;-78
2022/10/30 03:00:04;;;;;;;12.03;2.87;;;;;;;;;;5092042;28;20650;-79
2022/10/30 03:02:31;;;;;;;9.60;2.80;;;;;;;;;;5092587;28;20251;-80
2022/10/30 03:04:59;;;;;;;7.87;2.37;;;;;;;;;;5092962;28;20285;-78
2022/10/30 03:07:26;;;;;;;12.57;3.03;;;;;;;;;;5092773;28;20285;-79
2022/10/30 03:09:53;;;;;;;10.20;2.70;;;;;;;;;;5092488;28;20305;-79
2022/10/30 03:12:22;;;;;;;7.00;2.37;;;;;;;;;;5092000;28;20198;-79
2022/10/30 03:14:49;;;;;;;9.30;2.40;;;;;;;;;;5092882;28;20237;-79
2022/10/30 03:17:16;;;;;;;11.13;2.60;;;;;;;;;;5092806;28;20280;-79
2022/10/30 03:19:44;;;;;;;7.07;2.47;;;;;;;;;;5092377;28;20285;-80
2022/10/30 03:22:11;;;;;;;10.70;2.70;;;;;;;;;;5092595;28;20237;-79
2022/10/30 03:24:38;;;;;;;9.23;3.10;;;;;;;;;;5092063;28;20947;-79
2022/10/30 03:27:05;;;;;;;6.43;2.50;;;;;;;;;;5091740;28;20281;-79
2022/10/30 03:29:34;;;;;;;11.07;3.17;;;;;;;;;;5092120;28;20618;-79
2022/10/30 03:32:01;;;;;;;8.37;2.27;;;;;;;;;;5092444;28;20239;-79
2022/10/30 03:34:28;;;;;;;9.53;2.60;;;;;;;;;;5094465;28;20280;-79
2022/10/30 03:36:55;;;;;;;8.57;2.50;;;;;;;;;;5112178;28;20232;-79
2022/10/30 03:39:23;;;;;;;8.77;2.33;;;;;;;;;;5112290;28;20636;-79
2022/10/30 03:41:50;;;;;;;9.77;2.77;;;;;;;;;;5112241;28;20281;-79
2022/10/30 03:44:17;;;;;;;7.73;2.30;;;;;;;;;;5113052;28;20240;-79
2022/10/30 03:46:45;;;;;;;8.87;2.60;;;;;;;;;;5111737;28;20229;-79
2022/10/30 03:49:13;;;;;;;10.27;2.53;;;;;;;;;;5092485;28;20253;-79
2022/10/30 03:51:40;;;;;;;6.50;2.10;;;;;;;;;;5092271;28;20229;-79
2022/10/30 03:54:07;;;;;;;13.50;2.60;;;;;;;;;;5092357;28;20284;-79
2022/10/30 03:56:34;;;;;;;10.10;2.17;;;;;;;;;;5091988;28;20241;-79
2022/10/30 03:59:01;;;;;;;6.63;1.70;;;;;;;;;;5092506;28;20625;-79
2022/10/30 04:01:29;;;;;;;7.07;2.13;;;;;;;;;;5092287;28;20234;-79
2022/10/30 04:03:57;;;;;;;10.40;2.33;;;;;;;;;;5111909;28;20241;-79
2022/10/30 04:06:24;;;;;;;6.97;1.80;;;;;;;;;;5112497;28;20736;-79
2022/10/30 04:08:52;;;;;;;7.13;1.70;;;;;;;;;;5112380;28;20700;-79
2022/10/30 04:11:19;;;;;;;5.93;1.60;;;;;;;;;;5112338;28;20228;-78
2022/10/30 04:13:46;;;;;;;5.40;1.80;;;;;;;;;;5111707;28;20313;-78
2022/10/30 04:16:13;;;;;;;9.37;1.70;;;;;;;;;;5112470;28;20296;-79
2022/10/30 04:18:40;;;;;;;6.73;1.60;;;;;;;;;;5111022;28;20234;-79
2022/10/30 04:21:09;;;;;;;6.20;1.70;;;;;;;;;;5112176;28;20281;-79
2022/10/30 04:23:36;;;;;;;6.67;1.67;;;;;;;;;;5112062;28;20237;-79
2022/10/30 04:26:03;;;;;;;8.90;1.70;;;;;;;;;;5111822;28;20194;-79
2022/10/30 04:28:30;;;;;;;6.53;1.50;;;;;;;;;;5112555;28;20297;-79
2022/10/30 04:30:58;;;;;;;5.27;1.40;;;;;;;;;;5107302;28;20249;-79
2022/10/30 04:33:25;;;;;;;6.67;1.20;;;;;;;;;;5107279;28;20225;-79
2022/10/30 04:35:53;;;;;;;5.27;1.50;;;;;;;;;;5111811;28;20614;-79
2022/10/30 04:38:22;;;;;;;8.37;1.37;;;;;;;;;;5104974;28;20305;-78
2022/10/30 04:40:49;;;;;;;9.13;1.63;;;;;;;;;;5112288;28;20284;-78
2022/10/30 04:43:16;;;;;;;6.90;1.70;;;;;;;;;;5112046;28;20230;-78
2022/10/30 04:45:43;;;;;;;8.83;1.70;;;;;;;;;;5115706;28;20284;-79
2022/10/30 04:48:12;;;;;;;8.27;1.80;;;;;;;;;;5115997;28;20203;-79
2022/10/30 04:50:39;;;;;;;7.63;1.53;;;;;;;;;;5115976;28;20308;-79
2022/10/30 04:53:08;;;;;;;7.60;1.73;;;;;;;;;;5115400;28;20618;-78
2022/10/30 04:55:37;;;;;;;6.57;1.60;;;;;;;;;;5096574;28;20234;-79
2022/10/30 04:58:06;;;;;;;10.53;1.73;;;;;;;;;;5095556;28;20198;-79
2022/10/30 05:00:34;;;;;;;6.27;1.80;;;;;;;;;;5094767;28;20202;-78
2022/10/30 05:03:01;;;;;;;6.90;1.30;;;;;;;;;;5107428;28;20297;-78
2022/10/30 05:05:28;;;;;;;5.17;1.10;;;;;;;;;;5115089;28;20285;-79
2022/10/30 05:07:56;;;;;;;7.00;1.53;;;;;;;;;;5115205;28;20304;-79
2022/10/30 05:10:23;;;;;;;4.80;1.30;;;;;;;;;;5114235;28;20661;-79
2022/10/30 05:12:53;;;;;;;7.73;2.37;;;;;;;;;;5112322;28;20316;-79
2022/10/30 05:15:20;;;;;;;5.70;1.40;;;;;;;;;;5109688;28;20249;-79
2022/10/30 05:17:51;;;;;;;6.97;1.37;;;;;;;;;;5115102;28;20280;-79
2022/10/30 05:20:18;;;;;;;4.57;1.20;;;;;;;;;;5115355;28;20229;-80
2022/10/30 05:22:45;;;;;;;6.53;1.00;;;;;;;;;;5114834;28;20259;-80
2022/10/30 05:25:14;;;;;;;4.43;1.10;;;;;;;;;;5102860;28;20285;-80
2022/10/30 05:27:41;;;;;;;5.00;1.00;;;;;;;;;;5104758;28;20190;-80
2022/10/30 05:30:11;;;;;;;2.87;1.00;;;;;;;;;;5114684;28;20316;-79
2022/10/30 05:32:38;;;;;;;3.40;0.80;;;;;;;;;;5098500;28;20285;-80
2022/10/30 05:35:05;;;;;;;5.33;1.10;;;;;;;;;;5114985;28;20642;-79
2022/10/30 05:37:33;;;;;;;4.83;1.10;;;;;;;;;;5114584;28;20240;-79
2022/10/30 05:40:00;;;;;;;5.53;1.00;;;;;;;;;;5114586;28;20221;-79
2022/10/30 05:42:27;;;;;;;3.13;0.80;;;;;;;;;;5100945;28;20228;-79
2022/10/30 05:44:54;;;;;;;3.60;0.67;;;;;;;;;;5094131;28;20234;-79
2022/10/30 05:47:23;;;;;;;4.30;0.80;;;;;;;;;;5094144;28;20290;-79
2022/10/30 05:49:50;;;;;;;3.23;0.77;;;;;;;;;;5094125;28;20309;-80
2022/10/30 05:52:17;;;;;;;2.23;0.60;;;;;;;;;;5093953;28;20205;-79
2022/10/30 05:54:44;;;;;;;2.73;1.10;;;;;;;;;;5093694;28;20241;-80
2022/10/30 05:57:11;;;;;;;4.23;0.80;;;;;;;;;;5093837;28;20706;-80
2022/10/30 05:59:39;;;;;;;3.43;0.93;;;;;;;;;;5108005;28;20713;-80
2022/10/30 06:02:06;;;;;;;4.47;0.90;;;;;;;;;;5106171;28;20266;-79
2022/10/30 06:04:34;;;;;;;4.70;1.00;;;;;;;;;;5114597;28;20276;-80
2022/10/30 06:07:01;;;;;;;3.57;1.00;;;;;;;;;;5113241;28;20293;-80
2022/10/30 06:09:29;;;;;;;3.90;1.20;;;;;;;;;;5113760;28;20248;-80
2022/10/30 06:11:57;;;;;;;4.27;1.20;;;;;;;;;;5113737;28;20729;-80
2022/10/30 06:14:24;;;;;;;4.50;1.30;;;;;;;;;;5104016;28;20584;-80
2022/10/30 06:16:51;;;;;;;6.03;1.30;;;;;;;;;;5093631;28;20237;-80
2022/10/30 06:19:19;;;;;;;6.40;1.17;;;;;;;;;;5093332;28;20242;-79
2022/10/30 06:21:47;;;;;;;5.70;1.13;;;;;;;;;;5093641;28;20226;-80
2022/10/30 06:24:15;;;;;;;3.70;1.00;;;;;;;;;;5093545;28;20202;-80
2022/10/30 06:26:42;;;;;;;5.67;1.13;;;;;;;;;;5093356;28;20237;-80
2022/10/30 06:29:09;;;;;;;4.00;1.13;;;;;;;;;;5093176;28;20260;-79
2022/10/30 06:31:36;;;;;;;4.50;1.00;;;;;;;;;;5093454;28;20279;-80
2022/10/30 06:34:04;;;;;;;5.33;1.13;;;;;;;;;;5093428;28;20277;-79
2022/10/30 06:36:31;;;;;;;4.47;1.20;;;;;;;;;;5093089;28;20198;-80
2022/10/30 06:39:00;;;;;;;4.53;1.07;;;;;;;;;;5093277;28;20237;-80
2022/10/30 06:41:27;;;;;;;5.03;1.10;;;;;;;;;;5093184;28;20615;-79
2022/10/30 06:43:54;;;;;;;3.50;1.10;;;;;;;;;;5100440;28;20259;-80
2022/10/30 06:46:21;;;;;;;7.03;1.40;;;;;;;;;;5113923;28;20228;-80
2022/10/30 06:48:48;;;;;;;5.70;1.00;;;;;;;;;;5113417;28;20229;-80
2022/10/30 06:51:16;;;;;;;6.13;1.10;;;;;;;;;;5113173;28;20708;-80
2022/10/30 06:53:43;;;;;;;3.77;1.07;;;;;;;;;;5096045;28;20682;-80
2022/10/30 06:56:14;;;;;;;5.13;1.20;;;;;;;;;;5107294;28;20277;-80
2022/10/30 06:58:42;;;;;;;3.27;1.13;;;;;;;;;;5105359;28;20635;-80
2022/10/30 07:01:09;;;;;;;4.20;1.30;;;;;;;;;;5092957;28;20198;-80
2022/10/30 07:03:36;;;;;;;2.97;1.30;;;;;;;;;;5098959;28;20284;-80
2022/10/30 07:06:03;;;;;;;3.70;1.10;;;;;;;;;;5104260;28;20230;-79
2022/10/30 07:08:31;;;;;;;3.90;0.97;;;;;;;;;;5092797;28;20669;-80
2022/10/30 07:10:58;;;;;;;3.00;1.00;;;;;;;;;;5100523;28;20264;-80
2022/10/30 07:13:27;;;;;;;3.20;0.90;;;;;;;;;;5098102;28;20226;-80
2022/10/30 07:15:54;;;;;;;5.13;0.87;;;;;;;;;;5103569;28;20648;-80
2022/10/30 07:18:21;;;;;;;4.07;0.93;;;;;;;;;;5098305;28;20634;-79
2022/10/30 07:20:49;;;;;;;3.03;0.90;;;;;;;;;;5092015;28;20247;-79
2022/10/30 07:23:16;;;;;;;1.97;0.80;;;;;;;;;;5095028;28;20202;-79
2022/10/30 07:25:43;;;;;;;3.80;1.13;;;;;;;;;;5104732;28;20240;-81
2022/10/30 07:28:10;;;;;;;3.80;1.00;;;;;;;;;;5099332;28;20741;-80
2022/10/30 07:30:39;;;;;;;3.57;0.80;;;;;;;;;;5106809;28;20226;-79
2022/10/30 07:33:07;;;;;;;2.63;0.90;;;;;;;;;;5101461;28;20286;-79
2022/10/30 07:35:35;;;;;;;2.03;0.80;;;;;;;;;;5112422;28;20202;-79
2022/10/30 07:38:03;;;;;;;2.47;0.70;;;;;;;;;;5100824;28;20254;-79
2022/10/30 07:40:31;;;;;;;3.23;0.80;;;;;;;;;;5103979;28;20194;-79
2022/10/30 07:42:58;;;;;;;3.33;0.80;;;;;;;;;;5112584;28;20665;-79
2022/10/30 07:45:26;;;;;;;1.83;0.80;;;;;;;;;;5112113;28;20232;-79
2022/10/30 07:47:54;;;;;;;2.63;0.80;;;;;;;;;;5096804;28;20194;-79
2022/10/30 07:50:22;;;;;;;2.80;0.80;;;;;;;;;;5104107;28;20249;-80
2022/10/30 07:52:49;;;;;;;2.73;1.10;;;;;;;;;;5108887;28;20236;-79
2022/10/30 07:55:16;;;;;;;3.50;1.03;;;;;;;;;;5104668;28;20686;-80
2022/10/30 07:57:44;;;;;;;2.00;0.80;;;;;;;;;;5094798;28;20320;-79
2022/10/30 08:00:12;;;;;;;1.83;0.80;;;;;;;;;;5110270;28;20197;-80
2022/10/30 08:02:39;;;;;;;1.63;0.83;;;;;;;;;;5101111;28;20593;-79
2022/10/30 08:05:08;;;;;;;2.20;0.70;;;;;;;;;;5100997;28;20655;-80
2022/10/30 08:07:36;;;;;;;3.87;0.60;;;;;;;;;;5095604;28;20273;-80
2022/10/30 08:10:04;;;;;;;2.37;0.60;;;;;;;;;;5104998;28;20281;-80
2022/10/30 08:12:33;;;;;;;2.07;0.77;;;;;;;;;;5101996;28;20230;-80
2022/10/30 08:15:00;;;;;;;2.37;0.80;;;;;;;;;;5096926;28;20236;-80
2022/10/30 08:17:27;;;;;;;2.90;0.77;;;;;;;;;;5111587;28;20258;-80
2022/10/30 08:19:55;;;;;;;3.33;0.80;;;;;;;;;;5103754;28;20281;-80
2022/10/30 08:22:24;;;;;;;4.93;0.80;;;;;;;;;;5109007;28;20190;-80
2022/10/30 08:24:52;;;;;;;2.93;1.07;;;;;;;;;;5108083;28;20624;-79
2022/10/30 08:27:19;;;;;;;3.80;0.93;;;;;;;;;;5115643;28;20198;-79
2022/10/30 08:29:46;;;;;;;2.77;0.70;;;;;;;;;;5095604;28;20254;-79
2022/10/30 08:32:14;;;;;;;2.47;0.80;;;;;;;;;;5098306;28;20787;-80
2022/10/30 08:34:41;;;;;;;2.07;0.80;;;;;;;;;;5108197;28;20209;-80
2022/10/30 08:37:08;;;;;;;2.70;0.80;;;;;;;;;;5109153;28;20364;-80
2022/10/30 08:39:37;;;;;;;2.03;0.90;;;;;;;;;;5094596;28;20395;-80
2022/10/30 08:42:04;;;;;;;2.30;0.80;;;;;;;;;;5098090;28;20199;-80
2022/10/30 08:44:32;;;;;;;3.50;0.90;;;;;;;;;;5096432;28;20236;-80
2022/10/30 08:46:59;;;;;;;3.77;0.97;;;;;;;;;;5111216;28;20704;-80
2022/10/30 08:49:26;;;;;;;2.80;0.80;;;;;;;;;;5108993;28;20248;-79
2022/10/30 08:51:53;;;;;;;2.80;0.90;;;;;;;;;;5114184;28;20316;-80
2022/10/30 08:54:21;;;;;;;2.63;0.93;;;;;;;;;;5100674;28;20281;-80
2022/10/30 08:56:49;;;;;;;3.33;0.90;;;;;;;;;;5109352;28;20248;-80
2022/10/30 08:59:18;;;;;;;2.67;0.77;;;;;;;;;;5110009;28;20306;-80
2022/10/30 09:01:46;;;;;;;3.07;0.97;;;;;;;;;;5107573;28;20201;-80
2022/10/30 09:04:13;;;;;;;2.83;1.00;;;;;;;;;;5103318;28;20284;-80
2022/10/30 09:06:40;;;;;;;2.30;1.30;;;;;;;;;;5114749;28;20232;-80
2022/10/30 09:09:08;;;;;;;3.00;1.13;;;;;;;;;;5113925;28;20219;-80
2022/10/30 09:11:35;;;;;;;1.83;1.13;;;;;;;;;;5100662;28;20314;-79
2022/10/30 09:14:03;;;;;;;3.50;0.97;;;;;;;;;;5103672;28;20326;-80
2022/10/30 09:16:30;;;;;;;4.57;1.13;;;;;;;;;;5105603;28;20225;-79
2022/10/30 09:18:58;;;;;;;3.10;1.10;;;;;;;;;;5114251;28;20229;-80
2022/10/30 09:21:25;;;;;;;2.70;1.07;;;;;;;;;;5103039;28;20277;-80
2022/10/30 09:23:52;;;;;;;2.60;1.30;;;;;;;;;;5109299;28;20309;-79
2022/10/30 09:26:19;;;;;;;3.07;1.40;;;;;;;;;;5108708;28;20230;-79
2022/10/30 09:28:46;;;;;;;3.17;1.27;;;;;;;;;;5099505;28;20250;-80
2022/10/30 09:31:15;;;;;;;4.70;1.80;;;;;;;;;;5096557;28;20245;-80
2022/10/30 09:33:42;;;;;;;3.33;1.63;;;;;;;;;;5093744;28;20282;-80
2022/10/30 09:36:10;;;;;;;3.53;1.30;;;;;;;;;;5092843;28;20243;-79
2022/10/30 09:38:37;;;;;;;3.47;1.20;;;;;;;;;;5097159;28;20683;-79
2022/10/30 09:41:12;;;;;;;3.33;1.20;;;;;;;;;;5103668;28;20372;-78
2022/10/30 09:43:45;;;;;;;5.00;1.40;;;;;;;;;;5093247;28;20689;-79
2022/10/30 09:46:27;;;;;;;3.03;1.27;;;;;;;;;;5093019;28;20281;-79
2022/10/30 09:49:04;;;;;;;4.23;1.10;;;;;;;;;;5093532;28;20285;-79
2022/10/30 09:51:40;;;;;;;2.53;1.10;;;;;;;;;;5099971;28;20301;-78
2022/10/30 09:54:13;;;;;;;2.97;1.20;;;;;;;;;;5099524;28;20285;-78
2022/10/30 09:56:44;;;;;;;3.43;1.50;;;;;;;;;;5111389;28;20221;-79
2022/10/30 09:59:18;;;;;;;4.50;1.33;;;;;;;;;;5104639;28;20285;-79
2022/10/30 10:01:49;;;;;;;3.93;1.20;;;;;;;;;;5107332;28;20198;-79
2022/10/30 10:04:20;;;;;;;4.17;1.10;;;;;;;;;;5105504;28;20244;-78
2022/10/30 10:06:48;;;;;;;3.60;1.30;;;;;;;;;;5108779;28;20202;-78
2022/10/30 10:09:17;;;;;;;2.87;1.47;;;;;;;;;;5100426;28;20685;-79
2022/10/30 10:11:48;;;;;;;5.27;1.20;;;;;;;;;;5106720;28;20250;-78
2022/10/30 10:14:17;;;;;;;2.90;1.30;;;;;;;;;;5107671;28;20261;-79
2022/10/30 10:16:46;;;;;;;2.87;1.30;;;;;;;;;;5101546;28;20678;-78
2022/10/30 10:19:19;;;;;;;3.03;1.50;;;;;;;;;;5109659;28;20285;-78
2022/10/30 10:21:48;;;;;;;4.13;1.50;;;;;;;;;;5097218;28;20233;-79
2022/10/30 10:24:17;;;;;;;2.20;1.20;;;;;;;;;;5106541;28;20622;-78
2022/10/30 10:26:48;;;;;;;4.43;1.33;;;;;;;;;;5101798;28;20658;-79
2022/10/30 10:29:22;;;;;;;3.70;1.40;;;;;;;;;;5101699;28;20727;-78
2022/10/30 10:31:54;;;;;;;5.83;1.37;;;;;;;;;;5102193;28;20280;-79
2022/10/30 10:34:31;;;;;;;2.17;1.40;;;;;;;;;;5103346;28;20637;-78
2022/10/30 10:37:05;;;;;;;3.33;1.40;;;;;;;;;;5092928;28;20285;-79
2022/10/30 10:39:41;;;;;;;2.10;1.20;;;;;;;;;;5102503;28;20747;-79
2022/10/30 10:42:16;;;;;;;2.83;1.50;;;;;;;;;;5091668;28;20746;-78
2022/10/30 10:44:49;;;;;;;5.90;3.30;;;;;;;;;;5092638;28;20665;-78
2022/10/30 10:47:23;;;;;;;3.57;2.00;;;;;;;;;;5092871;28;20222;-78
2022/10/30 10:50:02;;;;;;;3.30;2.00;;;;;;;;;;5102759;28;20604;-78
2022/10/30 10:52:33;;;;;;;3.37;2.20;;;;;;;;;;5091501;28;20218;-79
2022/10/30 10:55:03;;;;;;;4.53;1.40;;;;;;;;;;5092823;28;20330;-78
2022/10/30 10:57:30;;;;;;;2.27;1.60;;;;;;;;;;5092963;28;20624;-78
2022/10/30 11:00:02;;;;;;;4.10;1.87;;;;;;;;;;5092808;28;20582;-78
2022/10/30 11:02:31;;;;;;;3.47;1.77;;;;;;;;;;5091800;28;20190;-78
2022/10/30 11:05:05;;;;;;;2.97;1.50;;;;;;;;;;5091346;28;20658;-78
2022/10/30 11:07:34;;;;;;;2.83;1.73;;;;;;;;;;5100998;28;20202;-78
2022/10/30 11:10:01;;;;;;;3.60;1.80;;;;;;;;;;5108232;28;20619;-78
2022/10/30 11:12:30;;;;;;;3.53;2.00;;;;;;;;;;5098759;28;20653;-78
2022/10/30 11:14:58;;;;;;;2.73;1.80;;;;;;;;;;5096418;28;20702;-79
2022/10/30 11:17:27;;;;;;;2.80;1.40;;;;;;;;;;5104313;28;20237;-79
2022/10/30 11:19:57;;;;;;;3.10;1.30;;;;;;;;;;5102887;28;20233;-78
2022/10/30 11:22:28;;;;;;;3.97;1.70;;;;;;;;;;5103131;28;20205;-78
2022/10/30 11:24:55;;;;;;;3.13;1.20;;;;;;;;;;5105767;28;20237;-78
2022/10/30 11:27:27;;;;;;;3.97;1.63;;;;;;;;;;5103092;28;20236;-78
2022/10/30 11:29:55;;;;;;;3.33;1.30;;;;;;;;;;5098185;28;20218;-78
2022/10/30 11:32:25;;;;;;;3.33;1.10;;;;;;;;;;5108298;28;20302;-78
2022/10/30 11:35:02;;;;;;;1.73;1.00;;;;;;;;;;5100819;28;20248;-79
2022/10/30 11:37:32;;;;;;;2.97;1.00;;;;;;;;;;5101625;28;20201;-78
2022/10/30 11:40:03;;;;;;;1.67;0.90;;;;;;;;;;5097558;28;20206;-79
2022/10/30 11:42:31;;;;;;;3.97;1.10;;;;;;;;;;5100477;28;20233;-78
2022/10/30 11:44:58;;;;;;;1.87;0.90;;;;;;;;;;5095190;28;20238;-78
2022/10/30 11:47:29;;;;;;;3.07;1.13;;;;;;;;;;5091821;28;20289;-79
2022/10/30 11:49:58;;;;;;;2.53;1.00;;;;;;;;;;5100386;28;20317;-79
2022/10/30 11:52:26;;;;;;;3.50;0.93;;;;;;;;;;5103703;28;20317;-79
2022/10/30 11:54:57;;;;;;;2.77;1.17;;;;;;;;;;5100728;28;20285;-79
2022/10/30 11:57:28;;;;;;;3.17;0.93;;;;;;;;;;5101495;28;20229;-79
2022/10/30 11:59:56;;;;;;;1.47;0.80;;;;;;;;;;5111774;28;20236;-79
2022/10/30 12:02:30;;;;;;;2.20;1.00;;;;;;;;;;5105973;28;20202;-79
2022/10/30 12:05:01;;;;;;;2.07;0.80;;;;;;;;;;5095744;28;20210;-79
2022/10/30 12:10:43;;;;;;;3.63;1.00;;;;;;;;;;5117231;28;20201;-79
2022/10/30 12:13:42;;;;;;;3.13;0.97;;;;;;;;;;5116838;28;20701;-79
2022/10/30 12:16:30;;;;;;;3.88;0.98;;;;;;;;;;5116925;28;20600;-79
2022/10/30 12:19:01;;;;;;;1.67;0.80;;;;;;;;;;5113291;28;20330;-79
2022/10/30 12:21:30;;;;;;;2.37;1.37;;;;;;;;;;5116812;28;20627;-79
2022/10/30 12:24:05;;;;;;;3.88;1.98;;;;;;;;;;5114268;28;20627;-79
2022/10/30 12:26:39;;;;;;;3.60;1.10;;;;;;;;;;5116529;28;20593;-79
2022/10/30 12:45:22;;;;;;;2.78;0.80;;;;;;;;;;4968579;28;20201;-80
2022/10/30 12:51:13;;;;;;;1.02;0.60;;;;;;;;;;4975042;28;20661;-80
2022/10/30 12:53:44;;;;;;;1.17;0.70;;;;;;;;;;4974150;28;20245;-80
2022/10/30 12:56:13;;;;;;;2.13;0.70;;;;;;;;;;4972993;28;20258;-79
2022/10/30 12:58:43;;;;;;;2.13;0.80;;;;;;;;;;4972874;28;20297;-79
2022/10/30 13:01:16;;;;;;;2.25;0.60;;;;;;;;;;4971500;28;20613;-78
2022/10/30 13:03:46;;;;;;;2.35;1.17;;;;;;;;;;4970809;28;20297;-79
2022/10/30 13:06:17;;;;;;;2.40;0.90;;;;;;;;;;4994321;28;20235;-79
2022/10/30 13:08:49;;;;;;;11.73;9.50;;;;;;;;;;5033564;28;20232;-79
2022/10/30 13:11:19;;;;;;;2.22;0.95;;;;;;;;;;5033494;28;20196;-79
2022/10/30 13:13:48;;;;;;;2.15;0.70;;;;;;;;;;5033728;28;20307;-79
2022/10/30 13:16:18;;;;;;;3.15;1.27;;;;;;;;;;5032301;28;20691;-80
2022/10/30 13:18:46;;;;;;;3.17;1.00;;;;;;;;;;5033569;28;20673;-79
2022/10/30 13:21:19;;;;;;;2.60;1.20;;;;;;;;;;5033176;28;20283;-79
2022/10/30 13:23:49;;;;;;;3.97;1.05;;;;;;;;;;5033524;28;20658;-80
2022/10/30 13:26:24;;;;;;;4.07;0.85;;;;;;;;;;5032583;28;20205;-79
2022/10/30 13:28:54;;;;;;;2.03;0.85;;;;;;;;;;5035358;28;20223;-79
2022/10/30 13:31:27;;;;;;;3.92;1.17;;;;;;;;;;5051863;28;20291;-79
2022/10/30 13:33:59;;;;;;;3.92;1.10;;;;;;;;;;5049623;28;20285;-80
2022/10/30 13:36:31;;;;;;;2.40;0.88;;;;;;;;;;5053560;28;20200;-78
2022/10/30 13:39:01;;;;;;;1.75;0.85;;;;;;;;;;5053170;28;20235;-79
2022/10/30 13:41:33;;;;;;;3.65;1.00;;;;;;;;;;5053594;28;20234;-79
2022/10/30 13:44:05;;;;;;;3.65;1.10;;;;;;;;;;5054028;28;20200;-80
2022/10/30 13:46:50;;;;;;;6.05;1.30;;;;;;;;;;5042713;28;20707;-79
2022/10/30 13:49:26;;;;;;;3.70;1.10;;;;;;;;;;5044940;28;20203;-79
2022/10/30 13:51:56;;;;;;;3.38;1.08;;;;;;;;;;5053313;28;20230;-79
2022/10/30 13:54:26;;;;;;;2.15;0.90;;;;;;;;;;5053372;28;20261;-81
2022/10/30 13:56:54;;;;;;;2.15;0.88;;;;;;;;;;5053518;28;20219;-80
2022/10/30 13:59:27;;;;;;;3.78;0.82;;;;;;;;;;5053407;28;20279;-80
2022/10/30 14:01:58;;;;;;;3.75;1.00;;;;;;;;;;5052351;28;20287;-80
2022/10/30 14:04:29;;;;;;;3.50;1.00;;;;;;;;;;5053260;28;20257;-80
2022/10/30 14:07:01;;;;;;;4.47;1.25;;;;;;;;;;5052907;28;20249;-80
2022/10/30 14:09:30;;;;;;;2.03;0.80;;;;;;;;;;5050863;28;20295;-80
2022/10/30 14:12:01;;;;;;;2.05;0.90;;;;;;;;;;5060722;28;20203;-79
2022/10/30 14:14:30;;;;;;;2.35;1.10;;;;;;;;;;5051590;28;20204;-79
2022/10/30 14:17:15;;;;;;;5.90;1.58;;;;;;;;;;5052323;28;20285;-79
2022/10/30 14:20:01;;;;;;;2.75;1.05;;;;;;;;;;5042427;28;20253;-79
2022/10/30 14:22:30;;;;;;;3.67;1.20;;;;;;;;;;5055381;28;20195;-79
2022/10/30 14:24:57;;;;;;;3.60;1.00;;;;;;;;;;5060253;28;20659;-79
2022/10/30 14:27:27;;;;;;;2.35;1.10;;;;;;;;;;5052183;28;20228;-79
2022/10/30 14:29:54;;;;;;;2.20;1.15;;;;;;;;;;5049078;28;20261;-79
2022/10/30 14:32:39;;;;;;;4.68;1.25;;;;;;;;;;5050834;28;20667;-79
2022/10/30 14:35:25;;;;;;;3.65;1.20;;;;;;;;;;5050614;28;20235;-79
2022/10/30 14:37:57;;;;;;;5.15;1.35;;;;;;;;;;5049300;28;20231;-79
2022/10/30 14:40:35;;;;;;;3.75;1.33;;;;;;;;;;5051864;28;20219;-79
2022/10/30 14:43:05;;;;;;;6.35;1.65;;;;;;;;;;5051718;28;20283;-79
2022/10/30 14:45:37;;;;;;;2.25;1.23;;;;;;;;;;5051473;28;20762;-79
2022/10/30 14:48:12;;;;;;;5.10;1.27;;;;;;;;;;5051887;28;20283;-80
2022/10/30 14:50:47;;;;;;;5.53;1.42;;;;;;;;;;5047127;28;20291;-79
2022/10/30 14:53:35;;;;;;;2.67;1.23;;;;;;;;;;5051818;28;20262;-79
2022/10/30 14:56:10;;;;;;;3.20;1.30;;;;;;;;;;5050382;28;20694;-79
2022/10/30 14:58:38;;;;;;;3.42;1.30;;;;;;;;;;5052293;28;20191;-80
2022/10/30 15:01:26;;;;;;;10.02;1.58;;;;;;;;;;5052055;28;20207;-79
2022/10/30 15:03:57;;;;;;;2.70;1.20;;;;;;;;;;5054940;28;20286;-80
2022/10/30 15:06:28;;;;;;;3.20;1.30;;;;;;;;;;5053970;28;20235;-79
2022/10/30 15:09:08;;;;;;;3.55;1.40;;;;;;;;;;5050820;28;20646;-79
2022/10/30 15:11:46;;;;;;;4.63;1.42;;;;;;;;;;5050490;28;20203;-79
2022/10/30 15:14:16;;;;;;;3.75;1.30;;;;;;;;;;5050310;28;20243;-79
2022/10/30 15:16:43;;;;;;;2.83;1.30;;;;;;;;;;5051414;28;20208;-79